createdAt,value
2019-01-13T00:01:04.312Z,3.79
2019-01-13T00:02:49.946Z,3.83
2019-01-13T00:04:36.216Z,3.83
2019-01-13T00:06:13.319Z,3.85
2019-01-13T00:07:54.103Z,3.86
2019-01-13T00:09:31.006Z,3.85
2019-01-13T00:11:06.967Z,3.86
2019-01-13T00:13:04.166Z,3.87
2019-01-13T00:14:39.954Z,3.88
2019-01-13T00:16:16.074Z,3.89
2019-01-13T00:17:54.981Z,3.89
2019-01-13T00:19:35.373Z,3.88
2019-01-13T00:21:10.813Z,3.88
2019-01-13T00:22:48.042Z,3.88
2019-01-13T00:24:24.008Z,3.89
2019-01-13T00:25:59.544Z,3.89
2019-01-13T00:27:34.999Z,3.91
2019-01-13T00:29:11.996Z,3.91
2019-01-13T00:30:50.500Z,3.92
2019-01-13T00:32:27.609Z,3.92
2019-01-13T00:34:02.955Z,3.92
2019-01-13T00:35:38.708Z,3.94
2019-01-13T00:37:15.631Z,3.95
2019-01-13T00:38:57.338Z,3.96
2019-01-13T00:40:33.111Z,3.96
2019-01-13T00:42:15.155Z,3.97
2019-01-13T00:43:58.883Z,3.96
2019-01-13T00:45:39.562Z,3.97
2019-01-13T00:47:22.280Z,3.99
2019-01-13T00:49:05.694Z,4.00
2019-01-13T00:50:47.383Z,3.98
2019-01-13T00:52:24.731Z,3.99
2019-01-13T00:54:02.993Z,3.99
2019-01-13T00:55:44.387Z,4.00
2019-01-13T00:57:23.022Z,4.00
2019-01-13T00:58:58.580Z,4.00
2019-01-13T01:00:36.402Z,3.99
2019-01-13T01:02:14.273Z,3.98
2019-01-13T01:03:51.634Z,3.99
2019-01-13T01:05:27.118Z,3.99
2019-01-13T01:07:02.413Z,3.99
2019-01-13T01:08:41.161Z,4.00
2019-01-13T01:10:18.898Z,4.01
2019-01-13T01:11:56.134Z,4.01
2019-01-13T01:13:32.481Z,4.00
2019-01-13T01:15:09.479Z,4.00
2019-01-13T01:16:44.997Z,4.00
2019-01-13T01:18:25.427Z,4.00
2019-01-13T01:20:01.573Z,3.98
2019-01-13T01:21:37.394Z,3.97
2019-01-13T01:23:14.350Z,3.97
2019-01-13T01:24:49.839Z,3.96
2019-01-13T01:26:27.447Z,3.95
2019-01-13T01:28:03.126Z,3.96
2019-01-13T01:29:38.967Z,3.95
2019-01-13T01:31:16.023Z,3.96
2019-01-13T01:32:51.695Z,3.95
2019-01-13T01:34:27.469Z,3.95
2019-01-13T01:36:03.171Z,3.95
2019-01-13T01:37:38.879Z,3.97
2019-01-13T01:39:14.139Z,3.98
2019-01-13T01:40:49.963Z,3.98
2019-01-13T01:42:25.321Z,3.95
2019-01-13T01:44:00.761Z,3.96
2019-01-13T01:45:36.016Z,3.98
2019-01-13T01:47:11.362Z,3.99
2019-01-13T01:48:46.836Z,3.99
2019-01-13T01:50:22.226Z,3.99
2019-01-13T01:51:57.530Z,4.01
2019-01-13T01:53:33.116Z,4.04
2019-01-13T01:55:11.557Z,4.06
2019-01-13T01:56:47.890Z,4.07
2019-01-13T01:58:23.821Z,4.07
2019-01-13T01:59:59.645Z,4.08
2019-01-13T02:01:40.551Z,4.10
2019-01-13T02:03:17.349Z,4.10
2019-01-13T02:04:53.295Z,4.11
2019-01-13T02:06:30.575Z,4.11
2019-01-13T02:08:06.070Z,4.12
2019-01-13T02:09:41.719Z,4.13
2019-01-13T02:11:19.944Z,4.13
2019-01-13T02:12:55.360Z,4.12
2019-01-13T02:14:31.020Z,4.14
2019-01-13T02:16:06.306Z,4.17
2019-01-13T02:17:44.533Z,4.17
2019-01-13T02:19:22.283Z,4.16
2019-01-13T02:20:57.770Z,4.17
2019-01-13T02:22:35.768Z,4.18
2019-01-13T02:24:11.223Z,4.18
2019-01-13T02:25:50.917Z,4.17
2019-01-13T02:27:26.475Z,4.18
2019-01-13T02:29:05.440Z,4.19
2019-01-13T02:30:48.810Z,4.20
2019-01-13T02:32:17.853Z,4.18
2019-01-13T02:33:54.103Z,4.19
2019-01-13T02:35:35.228Z,4.21
2019-01-13T02:37:13.116Z,4.22
2019-01-13T02:38:49.366Z,4.21
2019-01-13T02:40:24.775Z,4.21
2019-01-13T02:42:01.357Z,4.23
2019-01-13T02:43:37.143Z,4.22
2019-01-13T02:45:15.631Z,4.22
2019-01-13T02:46:53.613Z,4.22
2019-01-13T02:48:29.870Z,4.23
2019-01-13T02:50:06.601Z,4.25
2019-01-13T02:51:42.456Z,4.23
2019-01-13T02:53:17.806Z,4.21
2019-01-13T02:54:53.503Z,4.21
2019-01-13T02:56:28.749Z,4.22
2019-01-13T02:58:05.907Z,4.24
2019-01-13T02:59:41.588Z,4.23
2019-01-13T03:01:16.904Z,4.23
2019-01-13T03:02:52.261Z,4.21
2019-01-13T03:04:27.844Z,4.23
2019-01-13T03:06:03.358Z,4.21
2019-01-13T03:07:39.778Z,4.22
2019-01-13T03:09:15.436Z,4.22
2019-01-13T03:10:51.031Z,4.23
2019-01-13T03:12:29.473Z,4.23
2019-01-13T03:14:04.808Z,4.21
2019-01-13T03:15:41.223Z,4.22
2019-01-13T03:17:19.475Z,4.24
2019-01-13T03:18:57.000Z,4.24
2019-01-13T03:20:33.968Z,4.23
2019-01-13T03:22:12.543Z,4.25
2019-01-13T03:23:53.705Z,4.25
2019-01-13T03:25:29.518Z,4.25
2019-01-13T03:27:06.636Z,4.24
2019-01-13T03:28:46.247Z,4.25
2019-01-13T03:30:24.163Z,4.26
2019-01-13T03:31:59.977Z,4.26
2019-01-13T03:33:36.747Z,4.25
2019-01-13T03:35:12.791Z,4.26
2019-01-13T03:36:49.226Z,4.29
2019-01-13T03:38:25.088Z,4.28
2019-01-13T03:40:03.355Z,4.29
2019-01-13T03:41:49.151Z,4.28
2019-01-13T03:43:29.255Z,4.28
2019-01-13T03:45:05.852Z,4.28
2019-01-13T03:46:43.005Z,4.28
2019-01-13T03:48:20.942Z,4.28
2019-01-13T03:49:56.463Z,4.28
2019-01-13T03:51:31.781Z,4.28
2019-01-13T03:53:08.265Z,4.29
2019-01-13T03:54:54.573Z,4.27
2019-01-13T03:56:31.165Z,4.28
2019-01-13T03:58:06.746Z,4.30
2019-01-13T03:59:43.238Z,4.30
2019-01-13T04:01:18.878Z,4.29
2019-01-13T04:02:54.202Z,4.30
2019-01-13T04:04:29.594Z,4.31
2019-01-13T04:06:05.399Z,4.30
2019-01-13T04:07:40.606Z,4.30
2019-01-13T04:09:15.787Z,4.30
2019-01-13T04:10:51.028Z,4.30
2019-01-13T04:12:26.380Z,4.30
2019-01-13T04:14:01.999Z,4.32
2019-01-13T04:15:40.221Z,4.33
2019-01-13T04:17:15.719Z,4.33
2019-01-13T04:18:51.202Z,4.33
2019-01-13T04:20:27.000Z,4.34
2019-01-13T04:22:02.606Z,4.33
2019-01-13T04:23:38.409Z,4.33
2019-01-13T04:25:13.659Z,4.35
2019-01-13T04:26:48.906Z,4.36
2019-01-13T04:28:24.850Z,4.36
2019-01-13T04:30:00.258Z,4.37
2019-01-13T04:31:35.700Z,4.38
2019-01-13T04:33:11.077Z,4.40
2019-01-13T04:34:46.715Z,4.39
2019-01-13T04:36:26.952Z,4.40
2019-01-13T04:38:02.540Z,4.41
2019-01-13T04:39:37.836Z,4.42
2019-01-13T04:41:14.908Z,4.42
2019-01-13T04:42:50.540Z,4.42
2019-01-13T04:44:26.303Z,4.43
2019-01-13T04:46:01.506Z,4.44
2019-01-13T04:47:36.671Z,4.44
2019-01-13T04:49:13.146Z,4.44
2019-01-13T04:50:48.468Z,4.45
2019-01-13T04:52:24.044Z,4.46
2019-01-13T04:54:01.386Z,4.46
2019-01-13T04:55:36.736Z,4.45
2019-01-13T04:57:12.037Z,4.46
2019-01-13T04:58:47.255Z,4.46
2019-01-13T05:00:23.740Z,4.46
2019-01-13T05:01:59.044Z,4.48
2019-01-13T05:03:34.225Z,4.48
2019-01-13T05:05:09.931Z,4.48
2019-01-13T05:06:45.741Z,4.47
2019-01-13T05:08:21.130Z,4.48
2019-01-13T05:09:56.867Z,4.51
2019-01-13T05:11:32.188Z,4.49
2019-01-13T05:13:07.717Z,4.50
2019-01-13T05:14:44.838Z,4.51
2019-01-13T05:16:20.493Z,4.53
2019-01-13T05:17:56.363Z,4.55
2019-01-13T05:19:31.667Z,4.54
2019-01-13T05:21:06.866Z,4.54
2019-01-13T05:22:43.626Z,4.55
2019-01-13T05:24:18.837Z,4.55
2019-01-13T05:25:53.997Z,4.55
2019-01-13T05:27:30.675Z,4.55
2019-01-13T05:29:06.044Z,4.56
2019-01-13T05:30:43.233Z,4.57
2019-01-13T05:32:29.683Z,4.56
2019-01-13T05:34:06.924Z,4.57
2019-01-13T05:35:42.712Z,4.57
2019-01-13T05:37:18.224Z,4.58
2019-01-13T05:38:54.802Z,4.59
2019-01-13T05:40:39.350Z,4.59
2019-01-13T05:42:26.274Z,4.58
2019-01-13T05:44:01.485Z,4.58
2019-01-13T05:45:37.118Z,4.58
2019-01-13T05:47:12.400Z,4.59
2019-01-13T05:48:47.567Z,4.58
2019-01-13T05:50:27.249Z,4.58
2019-01-13T05:52:04.635Z,4.61
2019-01-13T05:53:40.193Z,4.61
2019-01-13T05:55:16.000Z,4.60
2019-01-13T05:56:52.438Z,4.62
2019-01-13T05:58:27.677Z,4.62
2019-01-13T06:00:04.264Z,4.60
2019-01-13T06:01:39.621Z,4.60
2019-01-13T06:03:15.161Z,4.59
2019-01-13T06:04:50.867Z,4.61
2019-01-13T06:06:27.813Z,4.62
2019-01-13T06:08:03.515Z,4.62
2019-01-13T06:09:39.405Z,4.62
2019-01-13T06:11:15.150Z,4.64
2019-01-13T06:12:50.690Z,4.63
2019-01-13T06:14:25.973Z,4.62
2019-01-13T06:16:01.568Z,4.64
2019-01-13T06:17:37.746Z,4.63
2019-01-13T06:19:13.340Z,4.65
2019-01-13T06:20:48.959Z,4.65
2019-01-13T06:22:25.579Z,4.65
2019-01-13T06:24:03.596Z,4.64
2019-01-13T06:25:38.835Z,4.65
2019-01-13T06:27:14.292Z,4.64
2019-01-13T06:28:49.610Z,4.65
2019-01-13T06:32:23.836Z,4.65
2019-01-13T06:33:59.480Z,4.66
2019-01-13T06:35:38.788Z,4.67
2019-01-13T06:37:15.304Z,4.65
2019-01-13T06:38:50.689Z,4.67
2019-01-13T06:40:26.409Z,4.66
2019-01-13T06:42:03.868Z,4.67
2019-01-13T06:43:41.510Z,4.70
2019-01-13T06:45:28.395Z,4.70
2019-01-13T06:47:03.616Z,4.73
2019-01-13T06:48:39.959Z,4.72
2019-01-13T06:50:15.949Z,4.72
2019-01-13T06:51:51.995Z,4.73
2019-01-13T06:53:28.945Z,4.74
2019-01-13T06:55:04.364Z,4.75
2019-01-13T06:56:40.158Z,4.75
2019-01-13T06:58:19.325Z,4.76
2019-01-13T06:59:56.638Z,4.77
2019-01-13T07:01:33.754Z,4.76
2019-01-13T07:03:11.609Z,4.78
2019-01-13T07:04:50.550Z,4.78
2019-01-13T07:06:30.943Z,4.80
2019-01-13T07:08:08.958Z,4.80
2019-01-13T07:09:45.081Z,4.81
2019-01-13T07:11:22.060Z,4.81
2019-01-13T07:12:59.651Z,4.82
2019-01-13T07:14:36.502Z,4.83
2019-01-13T07:16:12.976Z,4.83
2019-01-13T07:17:51.879Z,4.84
2019-01-13T07:19:29.578Z,4.88
2019-01-13T07:21:05.224Z,4.89
2019-01-13T07:22:46.028Z,4.88
2019-01-13T07:24:21.456Z,4.90
2019-01-13T07:25:57.111Z,4.90
2019-01-13T07:27:32.868Z,4.91
2019-01-13T07:29:08.600Z,4.93
2019-01-13T07:30:44.021Z,4.94
2019-01-13T07:32:19.677Z,4.93
2019-01-13T07:33:55.880Z,4.94
2019-01-13T07:35:31.497Z,4.97
2019-01-13T07:37:07.091Z,4.97
2019-01-13T07:38:42.985Z,4.97
2019-01-13T07:40:22.825Z,4.97
2019-01-13T07:41:58.962Z,4.99
2019-01-13T07:43:34.984Z,5.02
2019-01-13T07:45:13.793Z,5.00
2019-01-13T07:46:49.223Z,5.02
2019-01-13T07:48:24.555Z,5.06
2019-01-13T07:49:59.842Z,5.09
2019-01-13T07:51:35.090Z,5.09
2019-01-13T07:53:11.939Z,5.08
2019-01-13T07:54:47.287Z,5.11
2019-01-13T07:56:22.643Z,5.13
2019-01-13T07:58:00.433Z,5.15
2019-01-13T07:59:36.382Z,5.16
2019-01-13T08:01:12.119Z,5.16
2019-01-13T08:02:47.528Z,5.17
2019-01-13T08:04:23.197Z,5.15
2019-01-13T08:05:58.880Z,5.16
2019-01-13T08:07:34.581Z,5.19
2019-01-13T08:09:10.845Z,5.19
2019-01-13T08:10:46.066Z,5.21
2019-01-13T08:12:21.317Z,5.22
2019-01-13T08:13:56.685Z,5.21
2019-01-13T08:15:34.453Z,5.22
2019-01-13T08:17:13.070Z,5.23
2019-01-13T08:18:51.091Z,5.25
2019-01-13T08:20:31.716Z,5.23
2019-01-13T08:22:11.569Z,5.26
2019-01-13T08:23:48.323Z,5.29
2019-01-13T08:25:24.859Z,5.29
2019-01-13T08:27:03.338Z,5.28
2019-01-13T08:28:43.065Z,5.28
2019-01-13T08:30:19.522Z,5.32
2019-01-13T08:31:55.881Z,5.34
2019-01-13T08:33:40.539Z,5.35
2019-01-13T08:35:16.905Z,5.34
2019-01-13T08:36:52.686Z,5.37
2019-01-13T08:38:28.961Z,5.39
2019-01-13T08:40:11.813Z,5.41
2019-01-13T08:41:47.040Z,5.42
2019-01-13T08:43:24.145Z,5.45
2019-01-13T08:45:03.989Z,5.45
2019-01-13T08:46:41.426Z,5.47
2019-01-13T08:48:18.171Z,5.47
2019-01-13T08:49:57.955Z,5.48
2019-01-13T08:51:36.280Z,5.48
2019-01-13T08:53:14.490Z,5.50
2019-01-13T08:54:50.488Z,5.54
2019-01-13T08:56:27.695Z,5.56
2019-01-13T08:58:18.214Z,5.57
2019-01-13T08:59:56.047Z,5.58
2019-01-13T09:01:35.929Z,5.59
2019-01-13T09:03:12.387Z,5.59
2019-01-13T09:04:49.948Z,5.60
2019-01-13T09:06:28.335Z,5.61
2019-01-13T09:08:12.428Z,5.61
2019-01-13T09:09:50.296Z,5.61
2019-01-13T09:11:31.806Z,5.62
2019-01-13T09:13:08.695Z,5.62
2019-01-13T09:14:47.275Z,5.64
2019-01-13T09:16:24.540Z,5.65
2019-01-13T09:18:01.767Z,5.65
2019-01-13T09:19:37.082Z,5.66
2019-01-13T09:21:20.239Z,5.67
2019-01-13T09:23:04.272Z,5.70
2019-01-13T09:25:07.656Z,5.70
2019-01-13T09:26:51.093Z,5.72
2019-01-13T09:28:26.448Z,5.73
2019-01-13T09:30:04.398Z,5.75
2019-01-13T09:31:45.862Z,5.75
2019-01-13T09:33:21.394Z,5.75
2019-01-13T09:34:59.767Z,5.76
2019-01-13T09:36:39.479Z,5.76
2019-01-13T09:38:20.191Z,5.78
2019-01-13T09:40:06.374Z,5.78
2019-01-13T09:41:47.868Z,5.79
2019-01-13T09:43:31.744Z,5.80
2019-01-13T09:45:16.551Z,5.81
2019-01-13T09:46:54.241Z,5.82
2019-01-13T09:48:32.046Z,5.84
2019-01-13T09:50:21.415Z,5.84
2019-01-13T09:51:59.333Z,5.84
2019-01-13T09:53:35.684Z,5.86
2019-01-13T09:55:24.818Z,5.86
2019-01-13T09:57:02.683Z,5.87
2019-01-13T09:58:46.801Z,5.88
2019-01-13T10:00:26.994Z,5.89
2019-01-13T10:02:12.231Z,5.88
2019-01-13T10:03:48.384Z,5.90
2019-01-13T10:05:31.098Z,5.90
2019-01-13T10:07:10.569Z,5.92
2019-01-13T10:08:52.052Z,5.91
2019-01-13T10:10:36.611Z,5.92
2019-01-13T10:12:22.099Z,5.93
2019-01-13T10:14:12.738Z,5.92
2019-01-13T10:15:59.394Z,5.93
2019-01-13T10:17:37.817Z,5.95
2019-01-13T10:19:45.575Z,5.94
2019-01-13T10:21:40.841Z,5.95
2019-01-13T10:23:41.375Z,5.95
2019-01-13T10:25:31.178Z,5.96
2019-01-13T10:29:14.331Z,5.96
2019-01-13T10:31:03.142Z,5.97
2019-01-13T10:32:35.498Z,6.00
2019-01-13T10:34:16.585Z,6.01
2019-01-13T10:35:53.802Z,6.01
2019-01-13T10:37:29.552Z,6.02
2019-01-13T10:39:13.579Z,6.05
2019-01-13T10:40:52.744Z,6.03
2019-01-13T10:42:28.746Z,6.03
2019-01-13T10:44:04.458Z,6.03
2019-01-13T10:45:41.348Z,6.04
2019-01-13T10:47:24.753Z,6.04
2019-01-13T10:49:00.231Z,6.03
2019-01-13T10:50:35.782Z,6.06
2019-01-13T10:52:12.745Z,6.04
2019-01-13T10:53:56.002Z,6.04
2019-01-13T10:55:31.332Z,6.04
2019-01-13T10:57:08.489Z,6.05
2019-01-13T10:58:45.464Z,6.03
2019-01-13T11:00:35.871Z,6.04
2019-01-13T11:02:16.281Z,6.06
2019-01-13T11:04:00.594Z,6.04
2019-01-13T11:05:37.967Z,6.05
2019-01-13T11:07:19.365Z,6.05
2019-01-13T11:08:57.692Z,6.05
2019-01-13T11:10:41.062Z,6.07
2019-01-13T11:12:20.291Z,6.09
2019-01-13T11:14:05.381Z,6.10
2019-01-13T11:15:45.255Z,6.07
2019-01-13T11:17:26.498Z,6.09
2019-01-13T11:19:07.553Z,6.11
2019-01-13T11:20:50.528Z,6.13
2019-01-13T11:22:29.329Z,6.11
2019-01-13T11:24:12.418Z,6.16
2019-01-13T11:25:51.918Z,6.13
2019-01-13T11:27:31.868Z,6.14
2019-01-13T11:29:21.979Z,6.13
2019-01-13T11:30:54.704Z,6.17
2019-01-13T11:32:35.226Z,6.21
2019-01-13T11:34:31.932Z,6.19
2019-01-13T11:36:23.616Z,6.20
2019-01-13T11:38:03.859Z,6.20
2019-01-13T11:39:45.740Z,6.19
2019-01-13T11:41:32.605Z,6.19
2019-01-13T11:43:15.111Z,6.15
2019-01-13T11:44:57.087Z,6.13
2019-01-13T11:46:45.766Z,6.13
2019-01-13T11:48:25.485Z,6.11
2019-01-13T11:50:01.224Z,6.08
2019-01-13T11:51:40.350Z,6.08
2019-01-13T11:53:24.197Z,6.07
2019-01-13T11:55:00.715Z,6.05
2019-01-13T11:56:39.278Z,6.05
2019-01-13T11:58:16.711Z,6.07
2019-01-13T11:59:54.502Z,6.06
2019-01-13T12:01:49.482Z,6.07
2019-01-13T12:03:48.479Z,6.09
2019-01-13T12:05:31.948Z,6.07
2019-01-13T12:07:27.124Z,6.07
2019-01-13T12:09:10.572Z,6.10
2019-01-13T12:11:00.524Z,6.11
2019-01-13T12:12:44.624Z,6.11
2019-01-13T12:14:30.347Z,6.11
2019-01-13T12:16:15.788Z,6.13
2019-01-13T12:18:01.037Z,6.12
2019-01-13T12:19:45.229Z,6.12
2019-01-13T12:21:32.124Z,6.10
2019-01-13T12:23:11.987Z,6.11
2019-01-13T12:24:48.096Z,6.11
2019-01-13T12:26:24.089Z,6.11
2019-01-13T12:28:04.078Z,6.11
2019-01-13T12:29:43.399Z,6.14
2019-01-13T12:31:26.808Z,6.13
2019-01-13T12:33:05.753Z,6.13
2019-01-13T12:34:45.968Z,6.14
2019-01-13T12:36:27.987Z,6.15
2019-01-13T12:38:14.898Z,6.15
2019-01-13T12:39:55.463Z,6.12
2019-01-13T12:41:40.120Z,6.13
2019-01-13T12:43:15.704Z,6.13
2019-01-13T12:45:03.743Z,6.10
2019-01-13T12:46:45.015Z,6.12
2019-01-13T12:48:25.507Z,6.11
2019-01-13T12:50:05.186Z,6.13
2019-01-13T12:51:49.001Z,6.13
2019-01-13T12:53:26.049Z,6.12
2019-01-13T12:55:08.037Z,6.14
2019-01-13T12:56:49.628Z,6.13
2019-01-13T12:58:42.838Z,6.15
2019-01-13T13:00:21.762Z,6.14
2019-01-13T13:02:04.893Z,6.13
2019-01-13T13:03:54.424Z,6.14
2019-01-13T13:05:42.912Z,6.13
2019-01-13T13:07:28.970Z,6.12
2019-01-13T13:09:21.478Z,6.13
2019-01-13T13:11:00.791Z,6.14
2019-01-13T13:12:40.787Z,6.11
2019-01-13T13:14:25.363Z,6.13
2019-01-13T13:16:02.603Z,6.15
2019-01-13T13:17:40.934Z,6.12
2019-01-13T13:19:24.863Z,6.14
2019-01-13T13:21:13.351Z,6.12
2019-01-13T13:23:04.303Z,6.14
2019-01-13T13:24:43.280Z,6.14
2019-01-13T13:26:26.453Z,6.14
2019-01-13T13:28:08.291Z,6.15
2019-01-13T13:29:52.815Z,6.13
2019-01-13T13:31:39.140Z,6.13
2019-01-13T13:35:19.779Z,6.15
2019-01-13T13:37:01.573Z,6.11
2019-01-13T13:38:40.644Z,6.12
2019-01-13T13:40:23.340Z,6.13
2019-01-13T13:42:07.606Z,6.13
2019-01-13T13:43:47.234Z,6.11
2019-01-13T13:45:24.439Z,6.12
2019-01-13T13:47:03.263Z,6.13
2019-01-13T13:48:56.463Z,6.12
2019-01-13T13:50:36.210Z,6.14
2019-01-13T13:52:19.728Z,6.12
2019-01-13T13:53:59.771Z,6.11
2019-01-13T13:55:48.760Z,6.12
2019-01-13T13:57:38.780Z,6.12
2019-01-13T13:59:31.528Z,6.11
2019-01-13T14:01:30.012Z,6.13
2019-01-13T14:03:29.256Z,6.11
2019-01-13T14:05:19.062Z,6.10
2019-01-13T14:07:23.941Z,6.10
2019-01-13T14:09:09.845Z,6.12
2019-01-13T14:10:47.820Z,6.11
2019-01-13T14:12:31.389Z,6.10
2019-01-13T14:14:11.722Z,6.11
2019-01-13T14:15:49.295Z,6.11
2019-01-13T14:17:30.403Z,6.10
2019-01-13T14:19:25.250Z,6.11
2019-01-13T14:21:06.224Z,6.12
2019-01-13T14:22:42.153Z,6.10
2019-01-13T14:24:36.227Z,6.10
2019-01-13T14:26:16.700Z,6.11
2019-01-13T14:28:02.504Z,6.11
2019-01-13T14:29:48.395Z,6.08
2019-01-13T14:31:28.358Z,6.09
2019-01-13T14:33:11.745Z,6.09
2019-01-13T14:34:49.865Z,6.08
2019-01-13T14:36:28.122Z,6.10
2019-01-13T14:38:04.821Z,6.08
2019-01-13T14:39:54.576Z,6.08
2019-01-13T14:41:37.710Z,6.08
2019-01-13T14:43:22.212Z,6.08
2019-01-13T14:45:17.098Z,6.08
2019-01-13T14:47:17.638Z,6.07
2019-01-13T14:49:04.115Z,6.08
2019-01-13T14:50:52.465Z,6.08
2019-01-13T14:52:34.699Z,6.08
2019-01-13T14:54:22.521Z,6.08
2019-01-13T14:56:01.800Z,6.07
2019-01-13T14:57:38.180Z,6.07
2019-01-13T14:59:21.825Z,6.07
2019-01-13T15:01:02.713Z,6.08
2019-01-13T15:02:38.319Z,6.07
2019-01-13T15:04:15.833Z,6.08
2019-01-13T15:06:03.999Z,6.06
2019-01-13T15:07:40.939Z,6.07
2019-01-13T15:09:20.445Z,6.06
2019-01-13T15:10:58.718Z,6.07
2019-01-13T15:12:41.550Z,6.06
2019-01-13T15:14:20.913Z,6.07
2019-01-13T15:16:03.900Z,6.07
2019-01-13T15:17:46.874Z,6.06
2019-01-13T15:19:24.336Z,6.05
2019-01-13T15:21:02.952Z,6.05
2019-01-13T15:22:39.725Z,6.05
2019-01-13T15:24:16.958Z,6.05
2019-01-13T15:25:56.258Z,6.07
2019-01-13T15:27:33.672Z,6.05
2019-01-13T15:29:12.418Z,6.06
2019-01-13T15:30:52.551Z,6.07
2019-01-13T15:32:31.493Z,6.08
2019-01-13T15:34:16.719Z,6.07
2019-01-13T15:36:03.374Z,6.07
2019-01-13T15:37:44.537Z,6.06
2019-01-13T15:39:20.545Z,6.06
2019-01-13T15:41:05.456Z,6.06
2019-01-13T15:42:47.432Z,6.05
2019-01-13T15:44:25.012Z,6.06
2019-01-13T15:46:01.615Z,6.05
2019-01-13T15:47:39.768Z,6.05
2019-01-13T15:49:16.705Z,6.06
2019-01-13T15:50:56.209Z,6.07
2019-01-13T15:52:32.730Z,6.07
2019-01-13T15:54:19.106Z,6.06
2019-01-13T15:56:09.278Z,6.07
2019-01-13T15:57:48.859Z,6.08
2019-01-13T15:59:30.368Z,6.09
2019-01-13T16:01:12.619Z,6.11
2019-01-13T16:02:56.391Z,6.11
2019-01-13T16:04:45.171Z,6.11
2019-01-13T16:06:39.509Z,6.10
2019-01-13T16:08:18.013Z,6.09
2019-01-13T16:09:59.048Z,6.10
2019-01-13T16:11:35.487Z,6.11
2019-01-13T16:13:12.684Z,6.11
2019-01-13T16:14:48.907Z,6.11
2019-01-13T16:16:27.081Z,6.10
2019-01-13T16:18:10.049Z,6.07
2019-01-13T16:19:53.398Z,6.07
2019-01-13T16:21:40.102Z,6.04
2019-01-13T16:23:25.493Z,6.05
2019-01-13T16:25:08.117Z,6.01
2019-01-13T16:26:56.485Z,6.00
2019-01-13T16:28:45.841Z,5.99
2019-01-13T16:30:25.208Z,5.97
2019-01-13T16:32:17.937Z,5.98
2019-01-13T16:34:04.358Z,5.97
2019-01-13T16:35:53.526Z,5.94
2019-01-13T16:37:37.526Z,5.94
2019-01-13T16:39:15.639Z,5.94
2019-01-13T16:40:52.908Z,5.91
2019-01-13T16:42:33.934Z,5.91
2019-01-13T16:44:24.701Z,5.90
2019-01-13T16:46:02.761Z,5.90
2019-01-13T16:47:47.215Z,5.90
2019-01-13T16:49:30.624Z,5.88
2019-01-13T16:51:12.075Z,5.88
2019-01-13T16:52:56.553Z,5.88
2019-01-13T16:54:34.311Z,5.88
2019-01-13T16:56:14.977Z,5.88
2019-01-13T16:57:55.390Z,5.87
2019-01-13T16:59:35.812Z,5.87
2019-01-13T17:01:22.602Z,5.87
2019-01-13T17:03:02.520Z,5.86
2019-01-13T17:04:42.197Z,5.86
2019-01-13T17:06:28.496Z,5.84
2019-01-13T17:08:12.460Z,5.85
2019-01-13T17:09:52.885Z,5.85
2019-01-13T17:11:30.495Z,5.85
2019-01-13T17:13:11.582Z,5.86
2019-01-13T17:14:49.747Z,5.86
2019-01-13T17:16:38.325Z,5.84
2019-01-13T17:18:15.251Z,5.81
2019-01-13T17:19:56.579Z,5.79
2019-01-13T17:21:34.902Z,5.77
2019-01-13T17:23:12.344Z,5.76
2019-01-13T17:24:51.829Z,5.75
2019-01-13T17:26:31.997Z,5.72
2019-01-13T17:28:12.762Z,5.66
2019-01-13T17:30:05.970Z,5.66
2019-01-13T17:31:51.318Z,5.68
2019-01-13T17:33:30.522Z,5.68
2019-01-13T17:35:07.708Z,5.69
2019-01-13T17:36:46.707Z,5.68
2019-01-13T17:38:22.504Z,5.68
2019-01-13T17:39:57.843Z,5.68
2019-01-13T17:41:34.126Z,5.68
2019-01-13T17:43:15.257Z,5.70
2019-01-13T17:45:16.648Z,5.71
2019-01-13T17:46:58.927Z,5.72
2019-01-13T17:48:39.133Z,5.71
2019-01-13T17:50:17.021Z,5.72
2019-01-13T17:51:53.093Z,5.70
2019-01-13T17:53:28.579Z,5.68
2019-01-13T17:55:07.795Z,5.68
2019-01-13T17:56:49.153Z,5.68
2019-01-13T17:58:24.914Z,5.67
2019-01-13T18:00:18.215Z,5.68
2019-01-13T18:02:00.130Z,5.65
2019-01-13T18:03:38.621Z,5.67
2019-01-13T18:05:18.064Z,5.65
2019-01-13T18:06:56.437Z,5.64
2019-01-13T18:08:34.801Z,5.61
2019-01-13T18:10:12.337Z,5.48
2019-01-13T18:11:51.498Z,5.45
2019-01-13T18:13:29.298Z,5.44
2019-01-13T18:15:24.144Z,5.45
2019-01-13T18:17:08.447Z,5.45
2019-01-13T18:18:45.719Z,5.46
2019-01-13T18:20:31.821Z,5.48
2019-01-13T18:22:10.271Z,5.48
2019-01-13T18:23:53.321Z,5.47
2019-01-13T18:25:30.604Z,5.48
2019-01-13T18:27:07.863Z,5.48
2019-01-13T18:28:43.813Z,5.51
2019-01-13T18:30:26.442Z,5.52
2019-01-13T18:32:05.816Z,5.53
2019-01-13T18:33:45.466Z,5.51
2019-01-13T18:35:23.204Z,5.53
2019-01-13T18:37:01.098Z,5.55
2019-01-13T18:38:42.282Z,5.54
2019-01-13T18:40:23.527Z,5.52
2019-01-13T18:42:06.201Z,5.50
2019-01-13T18:43:45.594Z,5.51
2019-01-13T18:45:32.340Z,5.49
2019-01-13T18:47:11.566Z,5.48
2019-01-13T18:48:53.752Z,5.49
2019-01-13T18:50:33.186Z,5.49
2019-01-13T18:52:09.807Z,4.76
2019-01-13T18:53:49.913Z,3.97
2019-01-13T18:55:34.441Z,3.62
2019-01-13T18:57:16.709Z,3.59
2019-01-13T18:58:58.224Z,3.62
2019-01-13T19:00:36.514Z,3.70
2019-01-13T19:02:14.130Z,3.75
2019-01-13T19:03:57.206Z,3.78
2019-01-13T19:05:38.550Z,3.80
2019-01-13T19:07:14.010Z,3.82
2019-01-13T19:08:51.370Z,3.85
2019-01-13T19:10:52.108Z,3.88
2019-01-13T19:12:37.450Z,3.89
2019-01-13T19:14:34.363Z,3.92
2019-01-13T19:16:12.933Z,3.93
2019-01-13T19:17:49.481Z,3.92
2019-01-13T19:19:31.090Z,3.92
2019-01-13T19:21:09.277Z,3.94
2019-01-13T19:23:01.095Z,3.93
2019-01-13T19:24:49.178Z,3.99
2019-01-13T19:26:25.717Z,3.98
2019-01-13T19:28:01.016Z,3.98
2019-01-13T19:29:36.339Z,3.99
2019-01-13T19:31:11.846Z,4.00
2019-01-13T19:32:51.955Z,4.00
2019-01-13T19:34:28.322Z,4.03
2019-01-13T19:36:05.275Z,4.02
2019-01-13T19:37:41.905Z,4.02
2019-01-13T19:39:19.757Z,4.04
2019-01-13T19:40:56.101Z,4.04
2019-01-13T19:42:36.755Z,4.06
2019-01-13T19:44:12.502Z,4.07
2019-01-13T19:45:49.622Z,4.14
2019-01-13T19:47:29.015Z,4.14
2019-01-13T19:49:12.391Z,4.15
2019-01-13T19:50:48.254Z,4.17
2019-01-13T19:52:35.209Z,4.21
2019-01-13T19:54:14.887Z,4.23
2019-01-13T19:55:50.314Z,4.27
2019-01-13T19:57:27.115Z,4.27
2019-01-13T19:59:08.762Z,4.28
2019-01-13T20:00:47.198Z,4.29
2019-01-13T20:02:26.638Z,4.32
2019-01-13T20:04:06.305Z,4.33
2019-01-13T20:05:44.332Z,4.35
2019-01-13T20:07:34.988Z,4.37
2019-01-13T20:09:23.138Z,4.38
2019-01-13T20:11:05.632Z,4.38
2019-01-13T20:12:51.480Z,4.40
2019-01-13T20:14:28.415Z,4.40
2019-01-13T20:16:06.670Z,4.44
2019-01-13T20:17:43.309Z,4.43
2019-01-13T20:19:21.408Z,4.42
2019-01-13T20:20:56.794Z,4.43
2019-01-13T20:22:35.033Z,4.41
2019-01-13T20:24:14.632Z,4.42
2019-01-13T20:25:52.501Z,4.41
2019-01-13T20:27:29.092Z,4.41
2019-01-13T20:29:06.787Z,4.41
2019-01-13T20:30:43.216Z,4.38
2019-01-13T20:32:23.397Z,4.38
2019-01-13T20:34:08.227Z,4.37
2019-01-13T20:35:43.621Z,4.38
2019-01-13T20:37:25.329Z,4.38
2019-01-13T20:39:04.113Z,4.37
2019-01-13T20:40:41.919Z,4.38
2019-01-13T20:42:23.861Z,4.38
2019-01-13T20:44:05.586Z,4.37
2019-01-13T20:45:50.048Z,4.39
2019-01-13T20:47:28.937Z,4.40
2019-01-13T20:49:08.276Z,4.39
2019-01-13T20:50:47.327Z,4.38
2019-01-13T20:52:23.331Z,4.39
2019-01-13T20:54:07.841Z,4.38
2019-01-13T20:55:41.612Z,4.37
2019-01-13T20:57:23.538Z,4.37
2019-01-13T20:58:59.494Z,4.37
2019-01-13T21:00:36.424Z,4.36
2019-01-13T21:02:12.148Z,4.37
2019-01-13T21:03:52.215Z,4.38
2019-01-13T21:05:31.685Z,4.38
2019-01-13T21:07:08.173Z,4.37
2019-01-13T21:08:56.890Z,4.37
2019-01-13T21:10:33.589Z,4.37
2019-01-13T21:12:20.911Z,4.38
2019-01-13T21:13:53.602Z,4.37
2019-01-13T21:15:32.349Z,4.38
2019-01-13T21:17:11.557Z,4.39
2019-01-13T21:18:47.553Z,4.38
2019-01-13T21:20:23.772Z,4.37
2019-01-13T21:22:02.315Z,4.37
2019-01-13T21:23:40.416Z,4.39
2019-01-13T21:25:16.743Z,4.41
2019-01-13T21:26:55.449Z,4.41
2019-01-13T21:28:33.992Z,4.40
2019-01-13T21:30:26.952Z,4.39
2019-01-13T21:32:04.868Z,4.39
2019-01-13T21:33:42.031Z,4.37
2019-01-13T21:35:19.799Z,4.35
2019-01-13T21:36:57.188Z,4.35
2019-01-13T21:38:33.405Z,4.33
2019-01-13T21:40:09.937Z,4.37
2019-01-13T21:41:45.926Z,4.39
2019-01-13T21:43:23.987Z,4.37
2019-01-13T21:45:03.340Z,4.35
2019-01-13T21:46:39.197Z,4.36
2019-01-13T21:48:15.151Z,4.31
2019-01-13T21:49:51.822Z,4.31
2019-01-13T21:51:27.780Z,4.30
2019-01-13T21:53:03.887Z,4.28
2019-01-13T21:54:44.415Z,4.32
2019-01-13T21:56:23.697Z,4.29
2019-01-13T21:58:00.017Z,4.24
2019-01-13T21:59:41.362Z,4.11
2019-01-13T22:01:17.583Z,4.10
2019-01-13T22:02:58.347Z,4.06
2019-01-13T22:04:34.348Z,4.00
2019-01-13T22:06:16.447Z,3.95
2019-01-13T22:07:53.300Z,3.91
2019-01-13T22:09:29.678Z,3.91
2019-01-13T22:11:07.527Z,3.90
2019-01-13T22:12:46.320Z,3.89